createdAt,value
2023-01-19T00:00:58.717Z,96384.79
2023-01-19T00:04:26.905Z,96386.02
2023-01-19T00:07:54.021Z,96389.42
2023-01-19T00:11:19.741Z,96386.11
2023-01-19T00:14:09.810Z,96380.05
2023-01-19T00:17:35.790Z,96386.56
2023-01-19T00:20:36.493Z,96390.85
2023-01-19T00:23:25.235Z,96389.41
2023-01-19T00:26:14.400Z,96388.70
2023-01-19T00:29:05.905Z,96382.27
2023-01-19T00:32:19.422Z,96381.70
2023-01-19T00:35:27.362Z,96385.98
2023-01-19T00:38:04.755Z,96385.52
2023-01-19T00:40:57.077Z,96385.77
2023-01-19T00:44:24.921Z,96387.89
2023-01-19T00:47:33.337Z,96394.39
2023-01-19T00:50:53.991Z,96392.60
2023-01-19T00:54:22.651Z,96390.08
2023-01-19T00:57:32.742Z,96387.91
2023-01-19T01:00:42.438Z,96385.60
2023-01-19T01:04:10.828Z,96376.10
2023-01-19T01:07:37.630Z,96373.86
2023-01-19T01:10:47.865Z,96375.00
2023-01-19T01:14:14.642Z,96375.00
2023-01-19T01:17:11.934Z,96374.85
2023-01-19T01:20:23.053Z,96371.34
2023-01-19T01:23:50.188Z,96375.23
2023-01-19T01:27:02.892Z,96383.10
2023-01-19T01:30:31.155Z,96381.73
2023-01-19T01:33:41.219Z,96369.04
2023-01-19T01:37:09.466Z,96370.66
2023-01-19T01:40:36.368Z,96375.37
2023-01-19T01:44:03.383Z,96379.13
2023-01-19T01:47:07.400Z,96382.61
2023-01-19T01:50:06.952Z,96387.70
2023-01-19T01:53:18.765Z,96387.54
2023-01-19T01:56:14.003Z,96375.86
2023-01-19T01:59:24.755Z,96368.33
2023-01-19T02:05:37.222Z,96368.80
2023-01-19T02:09:01.905Z,96359.20
2023-01-19T02:12:28.252Z,96354.46
2023-01-19T02:15:35.454Z,96370.83
2023-01-19T02:18:43.899Z,96379.13
2023-01-19T02:21:33.286Z,96380.73
2023-01-19T02:24:41.957Z,96379.60
2023-01-19T02:28:12.826Z,96373.77
2023-01-19T02:31:21.282Z,96377.86
2023-01-19T02:34:39.405Z,96379.45
2023-01-19T02:37:46.442Z,96384.75
2023-01-19T02:40:54.490Z,96392.07
2023-01-19T02:44:21.871Z,96390.14
2023-01-19T02:47:31.221Z,96384.75
2023-01-19T02:51:22.344Z,96376.71
2023-01-19T02:54:26.280Z,96381.63
2023-01-19T02:58:05.224Z,96378.16
2023-01-19T03:01:18.527Z,96378.54
2023-01-19T03:04:23.425Z,96380.08
2023-01-19T03:07:23.080Z,96378.55
2023-01-19T03:11:05.287Z,96386.13
2023-01-19T03:14:19.026Z,96389.80
2023-01-19T03:17:48.298Z,96388.96
2023-01-19T03:20:55.085Z,96390.45
2023-01-19T03:24:06.721Z,96388.40
2023-01-19T03:27:00.053Z,96382.81
2023-01-19T03:30:15.932Z,96382.69
2023-01-19T03:33:49.285Z,96383.70
2023-01-19T03:36:57.383Z,96384.33
2023-01-19T03:39:35.628Z,96378.07
2023-01-19T03:42:26.721Z,96379.25
2023-01-19T03:45:04.119Z,96379.70
2023-01-19T03:48:33.826Z,96381.30
2023-01-19T03:51:47.671Z,96381.30
2023-01-19T03:55:14.603Z,96388.70
2023-01-19T03:57:47.197Z,96398.63
2023-01-19T04:00:15.801Z,96402.81
2023-01-19T04:03:07.134Z,96403.30
2023-01-19T04:05:40.799Z,96407.54
2023-01-19T04:08:08.983Z,96414.83
2023-01-19T04:10:36.761Z,96415.65
2023-01-19T04:13:05.679Z,96413.44
2023-01-19T04:15:33.601Z,96404.30
2023-01-19T04:18:04.327Z,96402.23
2023-01-19T04:20:32.569Z,96401.98
2023-01-19T04:23:02.190Z,96401.27
2023-01-19T04:25:31.144Z,96407.88
2023-01-19T04:27:58.932Z,96415.50
2023-01-19T04:30:27.986Z,96423.40
2023-01-19T04:32:56.801Z,96432.69
2023-01-19T04:35:25.044Z,96432.93
2023-01-19T04:37:52.212Z,96429.23
2023-01-19T04:40:20.153Z,96419.31
2023-01-19T04:42:50.653Z,96416.02
2023-01-19T04:45:17.797Z,96417.59
2023-01-19T04:47:44.900Z,96415.69
2023-01-19T04:50:12.883Z,96407.70
2023-01-19T04:52:40.540Z,96412.61
2023-01-19T04:55:08.409Z,96421.50
2023-01-19T04:57:36.140Z,96433.52
2023-01-19T05:00:07.837Z,96443.64
2023-01-19T05:02:36.330Z,96453.90
2023-01-19T05:05:05.122Z,96461.62
2023-01-19T05:07:33.252Z,96465.63
2023-01-19T05:10:01.819Z,96467.58
2023-01-19T05:12:29.893Z,96470.40
2023-01-19T05:14:57.770Z,96476.81
2023-01-19T05:17:26.603Z,96477.69
2023-01-19T05:19:55.769Z,96478.48
2023-01-19T05:22:24.997Z,96473.92
2023-01-19T05:24:52.323Z,96475.20
2023-01-19T05:27:20.380Z,96476.45
2023-01-19T05:29:49.326Z,96475.84
2023-01-19T05:32:17.552Z,96467.63
2023-01-19T05:34:45.547Z,96466.75
2023-01-19T05:37:12.989Z,96468.69
2023-01-19T05:39:40.269Z,96469.33
2023-01-19T05:42:07.956Z,96472.68
2023-01-19T05:44:35.116Z,96474.89
2023-01-19T05:47:02.227Z,96474.20
2023-01-19T05:49:29.845Z,96471.83
2023-01-19T05:51:56.894Z,96468.24
2023-01-19T05:54:24.989Z,96470.58
2023-01-19T05:56:52.902Z,96469.80
2023-01-19T05:59:24.461Z,96467.19
2023-01-19T06:01:52.647Z,96464.97
2023-01-19T06:04:21.186Z,96464.60
2023-01-19T06:06:50.250Z,96468.83
2023-01-19T06:09:18.661Z,96464.34
2023-01-19T06:11:46.821Z,96457.84
2023-01-19T06:14:15.642Z,96454.83
2023-01-19T06:16:42.536Z,96449.16
2023-01-19T06:19:10.791Z,96451.84
2023-01-19T06:21:38.171Z,96451.98
2023-01-19T06:24:05.782Z,96456.90
2023-01-19T06:26:33.419Z,96463.16
2023-01-19T06:29:00.570Z,96465.92
2023-01-19T06:31:27.688Z,96465.86
2023-01-19T06:33:56.529Z,96472.02
2023-01-19T06:36:24.232Z,96474.88
2023-01-19T06:38:52.153Z,96482.02
2023-01-19T06:41:19.807Z,96486.74
2023-01-19T06:43:46.795Z,96488.63
2023-01-19T06:46:14.040Z,96492.56
2023-01-19T06:48:41.817Z,96499.11
2023-01-19T06:51:08.989Z,96506.40
2023-01-19T06:53:36.237Z,96514.02
2023-01-19T06:56:05.490Z,96524.05
2023-01-19T06:58:35.197Z,96536.13
2023-01-19T07:01:06.311Z,96537.63
2023-01-19T07:03:35.503Z,96546.64
2023-01-19T07:06:03.439Z,96558.50
2023-01-19T07:08:31.273Z,96568.73
2023-01-19T07:11:25.305Z,96569.91
2023-01-19T07:13:56.868Z,96577.77
2023-01-19T07:16:24.518Z,96574.95
2023-01-19T07:18:51.729Z,96577.97
2023-01-19T07:21:19.525Z,96579.27
2023-01-19T07:23:52.281Z,96569.45
2023-01-19T07:26:22.258Z,96565.66
2023-01-19T07:28:50.034Z,96566.05
2023-01-19T07:31:19.489Z,96569.45
2023-01-19T07:33:48.078Z,96577.06
2023-01-19T07:36:15.603Z,96576.46
2023-01-19T07:38:43.221Z,96583.04
2023-01-19T07:41:11.876Z,96578.31
2023-01-19T07:43:39.918Z,96579.45
2023-01-19T07:46:09.196Z,96575.80
2023-01-19T07:48:36.690Z,96567.36
2023-01-19T07:51:11.773Z,96567.88
2023-01-19T07:53:41.251Z,96566.95
2023-01-19T07:56:08.716Z,96563.09
2023-01-19T07:58:36.014Z,96561.48
2023-01-19T08:01:14.557Z,96557.34
2023-01-19T08:03:42.677Z,96553.12
2023-01-19T08:06:24.231Z,96558.05
2023-01-19T08:08:51.332Z,96565.43
2023-01-19T08:11:19.273Z,96578.49
2023-01-19T08:13:47.308Z,96593.30
2023-01-19T08:16:15.145Z,96601.05
2023-01-19T08:18:43.547Z,96610.20
2023-01-19T08:21:10.949Z,96617.80
2023-01-19T08:23:38.286Z,96621.34
2023-01-19T08:26:30.566Z,96619.70
2023-01-19T08:29:04.270Z,96623.13
2023-01-19T08:31:35.911Z,96630.54
2023-01-19T08:34:03.592Z,96625.77
2023-01-19T08:36:30.677Z,96622.35
2023-01-19T08:38:58.654Z,96624.05
2023-01-19T08:41:28.655Z,96621.96
2023-01-19T08:44:03.322Z,96626.02
2023-01-19T08:46:31.864Z,96617.38
2023-01-19T08:49:00.773Z,96615.98
2023-01-19T08:51:31.104Z,96614.63
2023-01-19T08:53:58.200Z,96611.48
2023-01-19T08:56:26.225Z,96602.35
2023-01-19T08:59:08.167Z,96596.50
2023-01-19T09:01:37.521Z,96601.34
2023-01-19T09:04:07.200Z,96605.38
2023-01-19T09:06:37.612Z,96596.01
2023-01-19T09:09:09.780Z,96597.23
2023-01-19T09:11:41.280Z,96592.55
2023-01-19T09:14:08.916Z,96588.70
2023-01-19T09:16:49.321Z,96600.86
2023-01-19T09:19:16.807Z,96603.33
2023-01-19T09:21:57.570Z,96597.30
2023-01-19T09:24:27.552Z,96605.97
2023-01-19T09:26:56.842Z,96619.28
2023-01-19T09:29:31.339Z,96623.42
2023-01-19T09:32:01.641Z,96623.31
2023-01-19T09:34:28.809Z,96621.13
2023-01-19T09:37:20.975Z,96615.83
2023-01-19T09:40:08.626Z,96615.55
2023-01-19T09:43:16.492Z,96630.86
2023-01-19T09:45:54.654Z,96631.63
2023-01-19T09:48:51.292Z,96629.25
2023-01-19T09:51:26.312Z,96614.35
2023-01-19T09:54:01.168Z,96608.52
2023-01-19T09:56:30.997Z,96604.57
2023-01-19T09:58:59.485Z,96603.42
2023-01-19T10:01:36.391Z,96604.75
2023-01-19T10:04:26.722Z,96604.70
2023-01-19T10:07:01.108Z,96610.55
2023-01-19T10:09:54.345Z,96613.98
2023-01-19T10:13:08.812Z,96609.19
2023-01-19T10:15:54.614Z,96594.58
2023-01-19T10:19:05.343Z,96588.30
2023-01-19T10:21:47.883Z,96586.15
2023-01-19T10:24:31.342Z,96587.77
2023-01-19T10:27:18.491Z,96590.70
2023-01-19T10:30:40.244Z,96587.86
2023-01-19T10:33:29.240Z,96582.91
2023-01-19T10:35:59.144Z,96577.77
2023-01-19T10:38:29.448Z,96578.51
2023-01-19T10:41:07.094Z,96576.05
2023-01-19T10:43:44.753Z,96574.96
2023-01-19T10:46:23.772Z,96569.92
2023-01-19T10:49:31.801Z,96572.26
2023-01-19T10:52:00.591Z,96579.40
2023-01-19T10:54:35.549Z,96573.40
2023-01-19T10:57:11.489Z,96577.68
2023-01-19T10:59:52.852Z,96579.15
2023-01-19T11:02:29.631Z,96585.28
2023-01-19T11:05:22.656Z,96591.38
2023-01-19T11:07:50.468Z,96590.86
2023-01-19T11:10:21.438Z,96591.50
2023-01-19T11:13:06.876Z,96585.84
2023-01-19T11:15:46.248Z,96574.20
2023-01-19T11:18:30.392Z,96572.58
2023-01-19T11:21:07.573Z,96567.95
2023-01-19T11:24:03.448Z,96564.37
2023-01-19T11:26:37.448Z,96560.20
2023-01-19T11:29:06.963Z,96553.57
2023-01-19T11:31:55.806Z,96549.86
2023-01-19T11:34:52.942Z,96551.95
2023-01-19T11:37:20.704Z,96556.73
2023-01-19T11:40:04.733Z,96555.08
2023-01-19T11:43:06.800Z,96549.41
2023-01-19T11:45:56.657Z,96551.41
2023-01-19T11:49:00.750Z,96550.70
2023-01-19T11:52:01.739Z,96549.47
2023-01-19T11:55:27.082Z,96544.63
2023-01-19T11:58:54.236Z,96540.86
2023-01-19T12:02:19.207Z,96545.71
2023-01-19T12:05:49.133Z,96551.01
2023-01-19T12:09:33.664Z,96550.98
2023-01-19T12:13:12.934Z,96554.48
2023-01-19T12:16:12.807Z,96557.73
2023-01-19T12:19:45.288Z,96555.75
2023-01-19T12:22:59.871Z,96551.34
2023-01-19T12:25:58.924Z,96553.63
2023-01-19T12:28:40.980Z,96551.70
2023-01-19T12:31:21.963Z,96546.65
2023-01-19T12:33:55.072Z,96548.16
2023-01-19T12:36:31.782Z,96547.69
2023-01-19T12:39:09.059Z,96547.79
2023-01-19T12:41:58.922Z,96550.12
2023-01-19T12:45:08.461Z,96550.19
2023-01-19T12:48:14.664Z,96550.42
2023-01-19T12:50:50.358Z,96549.15
2023-01-19T12:53:23.947Z,96549.81
2023-01-19T12:56:22.641Z,96552.37
2023-01-19T12:58:51.193Z,96557.83
2023-01-19T13:01:22.157Z,96558.98
2023-01-19T13:04:10.550Z,96562.88
2023-01-19T13:06:54.561Z,96566.20
2023-01-19T13:09:39.167Z,96571.72
2023-01-19T13:12:35.013Z,96567.20
2023-01-19T13:15:31.712Z,96566.95
2023-01-19T13:18:06.646Z,96567.18
2023-01-19T13:21:14.526Z,96568.65
2023-01-19T13:24:30.805Z,96571.77
2023-01-19T13:28:07.533Z,96576.19
2023-01-19T13:31:16.981Z,96581.77
2023-01-19T13:33:56.861Z,96581.30
2023-01-19T13:37:14.700Z,96579.79
2023-01-19T13:40:11.501Z,96579.58
2023-01-19T13:43:00.901Z,96583.16
2023-01-19T13:46:03.027Z,96586.61
2023-01-19T13:48:35.531Z,96589.82
2023-01-19T13:51:08.463Z,96596.30
2023-01-19T13:53:37.317Z,96598.04
2023-01-19T13:56:21.051Z,96601.71
2023-01-19T13:59:13.359Z,96605.10
2023-01-19T14:01:52.578Z,96605.91
2023-01-19T14:04:50.171Z,96611.09
2023-01-19T14:07:27.281Z,96616.11
2023-01-19T14:10:04.792Z,96622.05
2023-01-19T14:12:38.171Z,96625.16
2023-01-19T14:15:21.480Z,96623.91
2023-01-19T14:18:09.465Z,96622.31
2023-01-19T14:20:39.348Z,96629.05
2023-01-19T14:23:27.627Z,96632.89
2023-01-19T14:25:55.785Z,96629.05
2023-01-19T14:28:47.015Z,96623.14
2023-01-19T14:31:25.278Z,96629.63
2023-01-19T14:33:57.136Z,96631.51
2023-01-19T14:36:28.841Z,96634.64
2023-01-19T14:39:04.758Z,96636.44
2023-01-19T14:41:38.904Z,96637.78
2023-01-19T14:44:28.842Z,96642.54
2023-01-19T14:46:59.930Z,96641.37
2023-01-19T14:49:40.239Z,96641.19
2023-01-19T14:52:27.245Z,96640.85
2023-01-19T14:54:58.146Z,96644.40
2023-01-19T14:57:25.602Z,96647.57
2023-01-19T14:59:53.186Z,96648.38
2023-01-19T15:02:21.445Z,96650.31
2023-01-19T15:04:48.885Z,96649.06
2023-01-19T15:07:20.924Z,96650.72
2023-01-19T15:09:56.133Z,96651.46
2023-01-19T15:12:26.474Z,96654.96
2023-01-19T15:14:53.829Z,96655.13
2023-01-19T15:17:26.868Z,96657.69
2023-01-19T15:19:55.457Z,96659.05
2023-01-19T15:22:31.762Z,96657.07
2023-01-19T15:25:01.048Z,96661.60
2023-01-19T15:27:42.933Z,96658.96
2023-01-19T15:30:34.312Z,96660.55
2023-01-19T15:33:04.637Z,96664.38
2023-01-19T15:35:38.645Z,96664.30
2023-01-19T15:38:10.683Z,96664.66
2023-01-19T15:41:00.854Z,96669.98
2023-01-19T15:43:34.424Z,96671.98
2023-01-19T15:46:23.035Z,96676.69
2023-01-19T15:48:56.520Z,96674.95
2023-01-19T15:51:31.863Z,96677.24
2023-01-19T15:54:03.755Z,96676.93
2023-01-19T15:57:07.246Z,96679.45
2023-01-19T16:00:03.929Z,96680.58
2023-01-19T16:02:34.981Z,96682.10
2023-01-19T16:05:10.704Z,96679.90
2023-01-19T16:08:01.083Z,96687.77
2023-01-19T16:10:45.103Z,96689.88
2023-01-19T16:13:13.729Z,96688.77
2023-01-19T16:15:44.813Z,96690.69
2023-01-19T16:18:16.027Z,96688.85
2023-01-19T16:20:43.438Z,96688.10
2023-01-19T16:23:20.683Z,96694.52
2023-01-19T16:25:59.927Z,96694.58
2023-01-19T16:28:28.789Z,96699.51
2023-01-19T16:30:56.151Z,96700.18
2023-01-19T16:33:24.063Z,96701.08
2023-01-19T16:35:53.862Z,96708.93
2023-01-19T16:38:41.521Z,96705.73
2023-01-19T16:41:11.251Z,96707.79
2023-01-19T16:43:38.899Z,96712.48
2023-01-19T16:46:09.445Z,96715.88
2023-01-19T16:48:47.987Z,96714.63
2023-01-19T16:51:35.148Z,96716.95
2023-01-19T16:54:04.254Z,96714.59
2023-01-19T16:56:33.953Z,96715.52
2023-01-19T16:59:23.516Z,96710.90
2023-01-19T17:01:52.693Z,96716.30
2023-01-19T17:04:22.926Z,96717.37
2023-01-19T17:06:52.424Z,96722.13
2023-01-19T17:09:20.199Z,96723.95
2023-01-19T17:11:52.880Z,96725.27
2023-01-19T17:14:26.010Z,96723.23
2023-01-19T17:16:53.167Z,96722.18
2023-01-19T17:19:25.013Z,96717.39
2023-01-19T17:21:56.561Z,96719.87
2023-01-19T17:24:29.298Z,96718.11
2023-01-19T17:26:58.653Z,96715.77
2023-01-19T17:29:29.026Z,96714.71
2023-01-19T17:32:08.867Z,96717.91
2023-01-19T17:34:36.175Z,96715.33
2023-01-19T17:37:05.012Z,96715.90
2023-01-19T17:39:36.978Z,96714.25
2023-01-19T17:42:06.721Z,96715.89
2023-01-19T17:44:35.031Z,96717.73
2023-01-19T17:47:03.330Z,96719.80
2023-01-19T17:49:35.709Z,96717.70
2023-01-19T17:52:03.863Z,96715.61
2023-01-19T17:54:32.454Z,96719.18
2023-01-19T17:57:01.299Z,96721.92
2023-01-19T17:59:28.807Z,96724.75
2023-01-19T18:01:56.441Z,96725.66
2023-01-19T18:04:23.857Z,96725.23
2023-01-19T18:06:51.214Z,96727.98
2023-01-19T18:09:39.727Z,96728.70
2023-01-19T18:12:14.018Z,96730.53
2023-01-19T18:14:41.968Z,96730.88
2023-01-19T18:17:10.162Z,96728.83
2023-01-19T18:19:38.487Z,96732.97
2023-01-19T18:22:06.089Z,96732.39
2023-01-19T18:24:33.600Z,96733.92
2023-01-19T18:27:01.177Z,96733.73
2023-01-19T18:29:29.517Z,96734.51
2023-01-19T18:31:57.008Z,96737.90
2023-01-19T18:34:27.294Z,96743.07
2023-01-19T18:36:55.166Z,96747.02
2023-01-19T18:39:22.570Z,96747.95
2023-01-19T18:41:49.603Z,96745.50
2023-01-19T18:44:22.779Z,96747.38
2023-01-19T18:46:50.464Z,96745.58
2023-01-19T18:49:17.748Z,96748.41
2023-01-19T18:51:48.986Z,96745.56
2023-01-19T18:54:18.044Z,96749.17
2023-01-19T18:56:45.637Z,96752.58
2023-01-19T18:59:13.846Z,96755.45
2023-01-19T19:02:02.304Z,96756.59
2023-01-19T19:04:31.092Z,96758.69
2023-01-19T19:06:58.435Z,96756.23
2023-01-19T19:09:25.652Z,96760.08
2023-01-19T19:11:53.114Z,96757.09
2023-01-19T19:14:21.039Z,96759.61
2023-01-19T19:16:49.159Z,96760.13
2023-01-19T19:19:17.089Z,96761.98
2023-01-19T19:21:46.124Z,96767.80
2023-01-19T19:24:14.498Z,96771.30
2023-01-19T19:26:43.161Z,96776.94
2023-01-19T19:29:12.378Z,96779.46
2023-01-19T19:31:39.388Z,96778.84
2023-01-19T19:34:07.033Z,96779.27
2023-01-19T19:36:34.365Z,96784.84
2023-01-19T19:39:01.816Z,96786.47
2023-01-19T19:41:29.831Z,96792.77
2023-01-19T19:43:58.587Z,96798.67
2023-01-19T19:46:27.529Z,96804.33
2023-01-19T19:48:57.969Z,96809.56
2023-01-19T19:51:30.263Z,96816.44
2023-01-19T19:54:00.504Z,96813.69
2023-01-19T19:56:31.123Z,96817.84
2023-01-19T19:59:24.672Z,96822.62
2023-01-19T20:01:54.268Z,96831.33
2023-01-19T20:04:23.206Z,96832.56
2023-01-19T20:06:50.695Z,96836.70
2023-01-19T20:09:18.952Z,96836.78
2023-01-19T20:11:47.703Z,96837.80
2023-01-19T20:14:17.135Z,96842.00
2023-01-19T20:16:45.294Z,96847.61
2023-01-19T20:19:14.416Z,96856.63
2023-01-19T20:21:43.434Z,96858.41
2023-01-19T20:24:15.712Z,96863.10
2023-01-19T20:26:47.034Z,96870.41
2023-01-19T20:29:14.829Z,96873.23
2023-01-19T20:31:48.258Z,96875.63
2023-01-19T20:34:20.765Z,96881.46
2023-01-19T20:36:50.400Z,96884.42
2023-01-19T20:39:24.862Z,96883.35
2023-01-19T20:41:53.091Z,96884.94
2023-01-19T20:44:24.027Z,96890.88
2023-01-19T20:46:52.343Z,96897.46
2023-01-19T20:49:20.209Z,96901.02
2023-01-19T20:52:03.239Z,96905.37
2023-01-19T20:54:30.980Z,96911.73
2023-01-19T20:56:59.514Z,96913.83
2023-01-19T20:59:34.696Z,96922.65
2023-01-19T21:02:02.144Z,96929.39
2023-01-19T21:04:29.687Z,96929.36
2023-01-19T21:07:06.632Z,96933.78
2023-01-19T21:09:35.335Z,96937.39
2023-01-19T21:12:03.307Z,96937.14
2023-01-19T21:14:34.252Z,96940.50
2023-01-19T21:17:03.666Z,96938.64
2023-01-19T21:19:32.747Z,96935.40
2023-01-19T21:22:00.367Z,96934.20
2023-01-19T21:25:07.440Z,96933.31
2023-01-19T21:27:53.561Z,96934.23
2023-01-19T21:30:41.344Z,96938.10
2023-01-19T21:33:58.281Z,96939.10
2023-01-19T21:37:10.718Z,96942.08
2023-01-19T21:39:53.011Z,96945.19
2023-01-19T21:43:01.096Z,96949.67
2023-01-19T21:46:30.658Z,96951.46
2023-01-19T21:50:20.861Z,96957.46
2023-01-19T21:54:20.979Z,96961.14
2023-01-19T21:58:08.619Z,96960.42
2023-01-19T22:02:01.962Z,96961.52
2023-01-19T22:05:49.680Z,96970.45
2023-01-19T22:09:38.237Z,96973.70
2023-01-19T22:12:54.543Z,96981.95
2023-01-19T22:16:07.461Z,96984.39
2023-01-19T22:19:41.584Z,96984.59
2023-01-19T22:22:39.338Z,96986.11
2023-01-19T22:26:03.449Z,96987.32
2023-01-19T22:28:41.318Z,96987.64
2023-01-19T22:31:13.136Z,96988.52
2023-01-19T22:34:40.470Z,96988.20
2023-01-19T22:37:47.855Z,96986.52
2023-01-19T22:41:16.188Z,96988.36
2023-01-19T22:44:43.349Z,96992.52
2023-01-19T22:48:10.234Z,97001.52
2023-01-19T22:51:10.218Z,97005.19
2023-01-19T22:53:37.501Z,97008.81
2023-01-19T22:56:24.597Z,97007.58
2023-01-19T22:58:54.003Z,97003.88
2023-01-19T23:01:24.652Z,97001.31
2023-01-19T23:04:47.529Z,97000.21
2023-01-19T23:07:36.216Z,97004.20
2023-01-19T23:10:30.365Z,97011.11
2023-01-19T23:13:01.524Z,97012.65
2023-01-19T23:15:49.630Z,97009.77
2023-01-19T23:18:28.976Z,97013.66
2023-01-19T23:21:06.890Z,97012.56
2023-01-19T23:23:56.207Z,97015.19
2023-01-19T23:26:25.648Z,97015.71
2023-01-19T23:29:39.162Z,97016.61
2023-01-19T23:32:54.331Z,97024.38
2023-01-19T23:35:22.082Z,97025.73
2023-01-19T23:37:49.706Z,97025.84
2023-01-19T23:40:18.610Z,97032.45
2023-01-19T23:42:47.245Z,97030.74
2023-01-19T23:45:14.867Z,97033.76
2023-01-19T23:47:43.862Z,97034.27
2023-01-19T23:50:11.866Z,97043.39
2023-01-19T23:52:39.273Z,97048.14
2023-01-19T23:55:07.557Z,97050.98
2023-01-19T23:57:34.959Z,97055.14
